Eviapetrol I — SY5401 — position and weather

sailwx.info

Track history (hours):
 
Tides and Currents Weather Stations Pressure Air Temp Water Temp Dewpoint Dewpoint Depression Visibility Wind Speed Wind Dir Waves Ship Positions

Eviapetrol I

Last reported at 2016-Dec-05 03:25 UTC. Time now 2016-Dec-05 04:24 UTC.
Position N 37°38' E 024°07'.

Length 75 m; draft 4.7 m.

Type: Tanker. MMSI: 240285000.

Date/timePositionNaut miles runAvg speedWind from/ knotsBaromVisibWave heightAir tempDewpointWater temp
2016-Dec-05 03:25N 37°38' E 024°07'1110.7
2016-Dec-05 02:22N 37°45' E 024°18'910.7
2016-Dec-05 01:33N 37°50' E 024°27'1110.5
2016-Dec-05 00:31N 37°58' E 024°37'1110.2
2016-Dec-04 23:25N 38°05' E 024°48'8 0.2
2016-Dec-02 20:33N 37°58' E 024°41'1010.1
2016-Dec-02 19:33N 37°52' E 024°31'10 9.7
2016-Dec-02 18:33N 37°47' E 024°21'14 9.6
2016-Dec-02 17:06N 37°38' E 024°07'6 9.9
2016-Dec-02 16:29N 37°37' E 023°59'1010.6
2016-Dec-02 15:33N 37°39' E 023°47'9 9.0
2016-Dec-02 14:33N 37°45' E 023°39'10 9.7
2016-Dec-02 13:33N 37°55' E 023°36'8 7.4
2016-Dec-02 12:31N 38°02' E 023°32'0 0.0
2016-Dec-02 11:31N 38°02' E 023°32'0 0.0
2016-Dec-02 10:31N 38°02' E 023°32'0 0.1
2016-Dec-02 09:28N 38°02' E 023°32'3 2.8
2016-Dec-02 08:33N 38°02' E 023°35'0 0.1
2016-Dec-02 07:33N 38°02' E 023°36'0 0.0
2016-Dec-02 06:33N 38°02' E 023°36'0 0.0
2016-Dec-02 05:33N 38°02' E 023°36'0 0.0
2016-Dec-02 04:33N 38°02' E 023°36'0 0.0
2016-Dec-02 03:33N 38°02' E 023°36'0 0.0
2016-Dec-02 02:33N 38°02' E 023°36'0 0.0
2016-Dec-02 01:30N 38°02' E 023°36'0 0.0
2016-Dec-02 00:33N 38°02' E 023°36'0 0.0
2016-Dec-01 23:33N 38°02' E 023°36'0 0.0
2016-Dec-01 22:33N 38°02' E 023°36'0 0.0
2016-Dec-01 21:33N 38°02' E 023°36'0 0.0
2016-Dec-01 20:33N 38°02' E 023°36'0 0.0
2016-Dec-01 19:33N 38°02' E 023°36'0 0.0
2016-Dec-01 18:33N 38°02' E 023°36'0 0.0
2016-Dec-01 17:33N 38°02' E 023°36'0 0.0
2016-Dec-01 16:34N 38°02' E 023°36'2 1.9
2016-Dec-01 15:34N 38°00' E 023°34'9 8.8
2016-Dec-01 14:34N 37°52' E 023°38'10 9.6
2016-Dec-01 13:33N 37°44' E 023°44'11 9.3
2016-Dec-01 12:20N 37°38' E 023°56'19 9.6
2016-Dec-01 10:21N 37°42' E 024°20'23 2.6
2016-Dec-01 01:19N 37°51' E 024°47'0 0.0
2016-Dec-01 00:25N 37°51' E 024°47'0 0.0
2016-Nov-30 16:25N 37°51' E 024°47'0 0.0
2016-Nov-30 15:31N 37°51' E 024°47'0 0.0
2016-Nov-30 05:33N 37°51' E 024°47'18 8.5
2016-Nov-30 03:28N 37°36' E 024°60'8 8.6
2016-Nov-30 02:33N 37°31' E 025°07'11 9.8
2016-Nov-30 01:28N 37°31' E 025°21'9 9.9
2016-Nov-30 00:34N 37°39' E 025°26'  
2016-Nov-26 11:33N 37°11' E 025°42'10 9.7
2016-Nov-26 10:33N 37°13' E 025°30'9 9.3
2016-Nov-26 09:33N 37°14' E 025°18'13 9.6
2016-Nov-26 08:11N 37°15' E 025°02'6 9.8
2016-Nov-26 07:33N 37°16' E 024°54'33 9.7
2016-Nov-26 04:12N 37°20' E 024°13'7 9.8
2016-Nov-26 03:29N 37°23' E 024°05'9 9.7
2016-Nov-26 02:33N 37°27' E 023°55'10 9.6
2016-Nov-26 01:33N 37°32' E 023°44'10 9.8
2016-Nov-26 00:33N 37°37' E 023°34'9 9.2
2016-Nov-25 23:33N 37°43' E 023°25'1010.1
2016-Nov-25 22:33N 37°53' E 023°23'9 8.7
2016-Nov-25 21:34N 38°00' E 023°28'6 6.4
2016-Nov-25 20:33N 38°02' E 023°36'0 0.0
2016-Nov-25 19:33N 38°02' E 023°36'0 0.0
2016-Nov-25 18:33N 38°02' E 023°36'0 0.0
2016-Nov-25 17:27N 38°02' E 023°36'0 0.0
2016-Nov-25 16:33N 38°02' E 023°36'0 0.0
2016-Nov-25 15:33N 38°02' E 023°36'0 0.0
2016-Nov-25 14:33N 38°02' E 023°36'0 0.0
2016-Nov-25 13:27N 38°02' E 023°36'0 0.0
2016-Nov-25 12:33N 38°02' E 023°36'0 0.0
2016-Nov-25 11:33N 38°02' E 023°36'0 0.0
2016-Nov-25 10:33N 38°02' E 023°36'0 0.0
2016-Nov-25 09:33N 38°02' E 023°36'0 0.0
2016-Nov-25 08:33N 38°02' E 023°36'0 0.0
2016-Nov-25 07:33N 38°02' E 023°36'0 0.0
2016-Nov-25 06:27N 38°02' E 023°36'3 3.0
2016-Nov-25 05:31N 38°02' E 023°32'0 0.0
2016-Nov-25 04:31N 38°02' E 023°32'0 0.0
2016-Nov-25 03:31N 38°02' E 023°32'  
Track history (hours):
 
Tides and Currents Weather Stations Pressure Air Temp Water Temp Dewpoint Dewpoint Depression Visibility Wind Speed Wind Dir Waves Ship Positions

Eviapetrol I

Last reported at 2016-Dec-05 03:25 UTC. Time now 2016-Dec-05 04:24 UTC.
Position N 37°38' E 024°07'.

Length 75 m; draft 4.7 m.

Type: Tanker. MMSI: 240285000.

Date/timePositionNaut miles runAvg speedWind from/ knotsBaromVisibWave heightAir tempDewpointWater temp
2016-Dec-05 03:25N 37°38' E 024°07'1110.7
2016-Dec-05 02:22N 37°45' E 024°18'910.7
2016-Dec-05 01:33N 37°50' E 024°27'1110.5
2016-Dec-05 00:31N 37°58' E 024°37'1110.2
2016-Dec-04 23:25N 38°05' E 024°48'8 0.2
2016-Dec-02 20:33N 37°58' E 024°41'1010.1
2016-Dec-02 19:33N 37°52' E 024°31'10 9.7
2016-Dec-02 18:33N 37°47' E 024°21'14 9.6
2016-Dec-02 17:06N 37°38' E 024°07'6 9.9
2016-Dec-02 16:29N 37°37' E 023°59'1010.6
2016-Dec-02 15:33N 37°39' E 023°47'9 9.0
2016-Dec-02 14:33N 37°45' E 023°39'10 9.7
2016-Dec-02 13:33N 37°55' E 023°36'8 7.4
2016-Dec-02 12:31N 38°02' E 023°32'0 0.0
2016-Dec-02 11:31N 38°02' E 023°32'0 0.0
2016-Dec-02 10:31N 38°02' E 023°32'0 0.1
2016-Dec-02 09:28N 38°02' E 023°32'3 2.8
2016-Dec-02 08:33N 38°02' E 023°35'0 0.1
2016-Dec-02 07:33N 38°02' E 023°36'0 0.0
2016-Dec-02 06:33N 38°02' E 023°36'0 0.0
2016-Dec-02 05:33N 38°02' E 023°36'0 0.0
2016-Dec-02 04:33N 38°02' E 023°36'0 0.0
2016-Dec-02 03:33N 38°02' E 023°36'0 0.0
2016-Dec-02 02:33N 38°02' E 023°36'0 0.0
2016-Dec-02 01:30N 38°02' E 023°36'0 0.0
2016-Dec-02 00:33N 38°02' E 023°36'0 0.0
2016-Dec-01 23:33N 38°02' E 023°36'0 0.0
2016-Dec-01 22:33N 38°02' E 023°36'0 0.0
2016-Dec-01 21:33N 38°02' E 023°36'0 0.0
2016-Dec-01 20:33N 38°02' E 023°36'0 0.0
2016-Dec-01 19:33N 38°02' E 023°36'0 0.0
2016-Dec-01 18:33N 38°02' E 023°36'0 0.0
2016-Dec-01 17:33N 38°02' E 023°36'0 0.0
2016-Dec-01 16:34N 38°02' E 023°36'2 1.9
2016-Dec-01 15:34N 38°00' E 023°34'9 8.8
2016-Dec-01 14:34N 37°52' E 023°38'10 9.6
2016-Dec-01 13:33N 37°44' E 023°44'11 9.3
2016-Dec-01 12:20N 37°38' E 023°56'19 9.6
2016-Dec-01 10:21N 37°42' E 024°20'23 2.6
2016-Dec-01 01:19N 37°51' E 024°47'0 0.0
2016-Dec-01 00:25N 37°51' E 024°47'0 0.0
2016-Nov-30 16:25N 37°51' E 024°47'0 0.0
2016-Nov-30 15:31N 37°51' E 024°47'0 0.0
2016-Nov-30 05:33N 37°51' E 024°47'18 8.5
2016-Nov-30 03:28N 37°36' E 024°60'8 8.6
2016-Nov-30 02:33N 37°31' E 025°07'11 9.8
2016-Nov-30 01:28N 37°31' E 025°21'9 9.9
2016-Nov-30 00:34N 37°39' E 025°26'  
2016-Nov-26 11:33N 37°11' E 025°42'10 9.7
2016-Nov-26 10:33N 37°13' E 025°30'9 9.3
2016-Nov-26 09:33N 37°14' E 025°18'13 9.6
2016-Nov-26 08:11N 37°15' E 025°02'6 9.8
2016-Nov-26 07:33N 37°16' E 024°54'33 9.7
2016-Nov-26 04:12N 37°20' E 024°13'7 9.8
2016-Nov-26 03:29N 37°23' E 024°05'9 9.7
2016-Nov-26 02:33N 37°27' E 023°55'10 9.6
2016-Nov-26 01:33N 37°32' E 023°44'10 9.8
2016-Nov-26 00:33N 37°37' E 023°34'9 9.2
2016-Nov-25 23:33N 37°43' E 023°25'1010.1
2016-Nov-25 22:33N 37°53' E 023°23'9 8.7
2016-Nov-25 21:34N 38°00' E 023°28'6 6.4
2016-Nov-25 20:33N 38°02' E 023°36'0 0.0
2016-Nov-25 19:33N 38°02' E 023°36'0 0.0
2016-Nov-25 18:33N 38°02' E 023°36'0 0.0
2016-Nov-25 17:27N 38°02' E 023°36'0 0.0
2016-Nov-25 16:33N 38°02' E 023°36'0 0.0
2016-Nov-25 15:33N 38°02' E 023°36'0 0.0
2016-Nov-25 14:33N 38°02' E 023°36'0 0.0
2016-Nov-25 13:27N 38°02' E 023°36'0 0.0
2016-Nov-25 12:33N 38°02' E 023°36'0 0.0
2016-Nov-25 11:33N 38°02' E 023°36'0 0.0
2016-Nov-25 10:33N 38°02' E 023°36'0 0.0
2016-Nov-25 09:33N 38°02' E 023°36'0 0.0
2016-Nov-25 08:33N 38°02' E 023°36'0 0.0
2016-Nov-25 07:33N 38°02' E 023°36'0 0.0
2016-Nov-25 06:27N 38°02' E 023°36'3 3.0
2016-Nov-25 05:31N 38°02' E 023°32'0 0.0
2016-Nov-25 04:31N 38°02' E 023°32'0 0.0
2016-Nov-25 03:31N 38°02' E 023°32'  

Dump ship's entire track history